North Platte Regional Airport Lee Bird Field
KLBF : now visible

Airfield :











YOU CAN JOIN US ON...

 
LOGIN :

Register | Disclaimer

   EN    FR    IT 

 









Legend :    VFR   Marginal VFR   IFR   Intensive IFR   Very Intensive IFR
Visi :
Ceiling :
>= 8 km
>= 3000ft
5 to 8 km
1000 to 3000 ft
1500m to 5 km
500 to 1000 ft
800 to 1500m
200 to 500 ft
< 800m
< 200 ft
Symbols :   Thunderstorms  Fog  Heavy snow  Heavy precipitations  Wind > 20 kt






- Airport Elevation : 2777 ft
- IATA code : LBF


KLBF - North Platte Regional Lee Bird Field

CURRENT METAR :
  • 172153Z AUTO 27007KT 10SM OVC009 00/M02 A2971 RMK AO2 SLP084 T00001017

EXPIRED METARs :
  • 172053Z AUTO 20008KT 10SM OVC009 00/M02 A2969 RMK AO2 CIG 006V011 SLP079 I3000 T00001017 56035
  • 171953Z AUTO 20008KT 10SM OVC007 M01/M02 A2971 RMK AO2 CIG 006V010 SLP088 T10061017
  • 171853Z AUTO 20012KT 8SM OVC006 M01/M02 A2974 RMK AO2 SLP096 I1000 T10061017

TAF KLBF
Valid from the 17 at 18:00 until the 18 at 18:00 UTC


171725Z 1718/1818 19014G22KT 5SM BR OVC005
FM172000 19011KT 5SM BR OVC004
FM172300 23006KT 5SM BR OVC009
FM180600 32024G35KT P6SM OVC060
FM181300 31014G26KT P6SM SKC



MET'MAP, your aeronautical weather chart ! - Copyright ORBIFLY December 2007 - Disclaimer

ORBIFLY MET'MAP TEAM :

Programming & Development : Alexandra Zaïnal
Concept & original design : Baudouin d'Aumeries
Assistance for programming : Marc-Olivier Méhu
Technical & hardware support : Manuel Goepfert

Contact : metmap@orbifly.com




SOURCES & CREDITS :

   NOAA       Earth
Advisory